Time;durP1;ratioP1;P1;durP2;ratioP2;P2;SDS_P1;SDS_P2;PMS_P1;PMS_P2;Temp;Humidity;BMP_temperature;BMP_pressure;BME280_temperature;BME280_humidity;BME280_pressure;Samples;Min_cycle;Max_cycle;Signal;HPM_P1;HPM_P2
2023/08/16 00:01:22;;;;;;;0.10;0.10;;;;;;;;;;5079471;28;20044;-76
2023/08/16 00:03:48;;;;;;;0.20;0.20;;;18.60;99.90;;;;;;5081419;28;20036;-76
2023/08/16 00:06:14;;;;;;;1.65;1.55;;;18.60;99.90;;;;;;5064034;28;20548;-76
2023/08/16 00:08:41;;;;;;;0.45;0.45;;;18.50;99.90;;;;;;5083064;28;20035;-77
2023/08/16 00:11:07;;;;;;;0.00;0.00;;;18.40;99.90;;;;;;5082785;28;20016;-76
2023/08/16 00:13:34;;;;;;;0.10;0.10;;;18.30;99.90;;;;;;5083190;28;20028;-76
2023/08/16 00:16:01;;;;;;;0.38;0.38;;;18.20;99.90;;;;;;5082341;28;20160;-76
2023/08/16 00:18:29;;;;;;;0.10;0.10;;;18.20;99.90;;;;;;5082002;28;20062;-76
2023/08/16 00:20:55;;;;;;;0.10;0.10;;;18.10;99.90;;;;;;5082248;28;20533;-76
2023/08/16 00:23:21;;;;;;;0.43;0.43;;;18.10;99.90;;;;;;5082369;28;20413;-76
2023/08/16 00:25:47;;;;;;;0.10;0.10;;;17.20;99.90;;;;;;5082610;28;20539;-76
2023/08/16 00:28:13;;;;;;;0.10;0.10;;;18.10;99.90;;;;;;5082972;28;20031;-76
2023/08/16 00:30:39;;;;;;;0.10;0.10;;;18.10;99.90;;;;;;5083399;28;20065;-76
2023/08/16 00:33:05;;;;;;;0.10;0.10;;;18.10;99.90;;;;;;5083251;28;20565;-75
2023/08/16 00:35:31;;;;;;;0.10;0.10;;;18.20;99.90;;;;;;5083029;28;20063;-76
2023/08/16 00:37:58;;;;;;;0.17;0.17;;;18.70;99.90;;;;;;5082298;28;20032;-77
2023/08/16 00:40:24;;;;;;;0.20;0.20;;;18.10;99.90;;;;;;5082181;28;20020;-76
2023/08/16 00:42:50;;;;;;;0.20;0.20;;;18.40;99.90;;;;;;5082443;28;20093;-76
2023/08/16 00:45:16;;;;;;;0.10;0.10;;;18.10;99.90;;;;;;5082359;28;20016;-77
2023/08/16 00:47:43;;;;;;;0.68;0.68;;;18.10;99.90;;;;;;5082152;28;20043;-76
2023/08/16 00:50:10;;;;;;;0.32;0.32;;;18.10;99.90;;;;;;5081984;28;20089;-76
2023/08/16 00:52:38;;;;;;;0.10;0.10;;;18.00;99.90;;;;;;5065150;28;20400;-76
2023/08/16 00:55:06;;;;;;;0.10;0.10;;;18.00;99.90;;;;;;5082579;28;20692;-77
2023/08/16 00:57:32;;;;;;;0.20;0.20;;;17.90;99.90;;;;;;5063799;28;20539;-76
2023/08/16 00:59:57;;;;;;;0.03;0.03;;;18.00;99.90;;;;;;5097490;28;20036;-76
2023/08/16 01:02:23;;;;;;;0.57;0.57;;;17.90;99.90;;;;;;5042106;28;20049;-76
2023/08/16 01:04:49;;;;;;;0.10;0.10;;;17.80;99.90;;;;;;5042585;28;20032;-79
2023/08/16 01:07:15;;;;;;;0.10;0.10;;;17.80;99.90;;;;;;5041301;28;20076;-76
2023/08/16 01:09:42;;;;;;;0.90;0.90;;;17.80;99.90;;;;;;5041689;28;20333;-76
2023/08/16 01:12:14;;;;;;;0.52;0.52;;;17.90;99.90;;;;;;5040296;28;20074;-77
2023/08/16 01:14:57;;;;;;;0.20;0.20;;;16.60;99.90;;;;;;5039195;28;20318;-76
2023/08/16 01:17:24;;;;;;;0.20;0.20;;;17.80;99.90;;;;;;5041338;28;20017;-76
2023/08/16 01:19:59;;;;;;;0.10;0.10;;;17.80;99.90;;;;;;5042553;28;20418;-78
2023/08/16 01:22:37;;;;;;;0.10;0.10;;;18.00;99.90;;;;;;5043474;28;20217;-77
2023/08/16 01:25:11;;;;;;;0.10;0.10;;;17.80;99.90;;;;;;5041337;28;20035;-76
2023/08/16 01:27:37;;;;;;;0.10;0.10;;;;;;;;;;5040910;28;20017;-76
2023/08/16 01:30:06;;;;;;;0.82;0.82;;;18.60;99.90;;;;;;5040644;28;20040;-76
2023/08/16 01:32:32;;;;;;;0.10;0.10;;;19.00;99.90;;;;;;5040642;28;20025;-76
2023/08/16 01:34:58;;;;;;;0.10;0.10;;;18.90;99.90;;;;;;5039097;28;20273;-77
2023/08/16 01:37:25;;;;;;;0.10;0.10;;;19.10;99.90;;;;;;5041650;28;20029;-76
2023/08/16 01:39:52;;;;;;;0.10;0.10;;;19.00;99.90;;;;;;5039842;28;20399;-76
2023/08/16 01:42:20;;;;;;;0.20;0.20;;;19.00;99.90;;;;;;5041261;28;20017;-76
2023/08/16 01:44:55;;;;;;;0.43;0.43;;;18.90;99.90;;;;;;5040895;28;21152;-76
2023/08/16 01:47:22;;;;;;;0.10;0.10;;;18.80;99.90;;;;;;5042721;28;20301;-76
2023/08/16 01:49:48;;;;;;;0.10;0.10;;;;;;;;;;5041465;28;20033;-76
2023/08/16 01:52:14;;;;;;;0.28;0.28;;;18.40;99.90;;;;;;5040634;28;20048;-76
2023/08/16 01:54:41;;;;;;;0.10;0.10;;;18.20;99.90;;;;;;5040201;28;20586;-76
2023/08/16 01:57:07;;;;;;;0.10;0.10;;;18.10;99.90;;;;;;5040750;28;20021;-76
2023/08/16 01:59:33;;;;;;;0.10;0.10;;;18.00;99.90;;;;;;5040907;28;20020;-76
2023/08/16 02:02:00;;;;;;;0.40;0.40;;;18.10;99.90;;;;;;5070339;28;20074;-76
2023/08/16 02:04:26;;;;;;;0.45;0.45;;;18.30;99.90;;;;;;5096093;28;20119;-76
2023/08/16 02:06:52;;;;;;;0.10;0.10;;;18.10;99.90;;;;;;5079769;28;20020;-76
2023/08/16 02:09:19;;;;;;;0.30;0.30;;;17.20;99.90;;;;;;5081633;28;20058;-76
2023/08/16 02:11:46;;;;;;;0.10;0.10;;;;;;;;;;5080699;28;20024;-77
2023/08/16 02:14:12;;;;;;;4.00;3.80;;;17.60;99.90;;;;;;5080930;28;20144;-76
2023/08/16 02:16:38;;;;;;;0.10;0.10;;;17.50;99.90;;;;;;5080395;28;20016;-77
2023/08/16 02:19:04;;;;;;;0.10;0.10;;;17.20;99.90;;;;;;5062090;28;20075;-77
2023/08/16 02:21:30;;;;;;;0.20;0.20;;;17.10;99.90;;;;;;5061605;28;20031;-76
2023/08/16 02:23:56;;;;;;;0.10;0.10;;;17.30;99.90;;;;;;5080026;28;20024;-76
2023/08/16 02:26:22;;;;;;;0.20;0.20;;;17.50;99.90;;;;;;5079925;28;20038;-76
2023/08/16 02:28:50;;;;;;;0.63;0.63;;;17.10;99.90;;;;;;5079950;28;20024;-76
2023/08/16 02:31:16;;;;;;;0.10;0.10;;;16.90;99.90;;;;;;5081780;28;20027;-75
2023/08/16 02:33:42;;;;;;;1.38;1.33;;;16.90;99.90;;;;;;5063309;28;20092;-75
2023/08/16 02:36:08;;;;;;;0.10;0.10;;;16.80;99.90;;;;;;5062107;28;20098;-75
2023/08/16 02:38:34;;;;;;;0.00;0.00;;;16.70;99.90;;;;;;5080003;28;20377;-75
2023/08/16 02:41:00;;;;;;;0.47;0.47;;;13.90;99.90;;;;;;5095353;28;20311;-76
2023/08/16 02:43:26;;;;;;;0.10;0.10;;;16.40;99.90;;;;;;5079369;28;20020;-75
2023/08/16 02:45:53;;;;;;;0.10;0.10;;;16.50;99.90;;;;;;5079288;28;20016;-75
2023/08/16 02:48:19;;;;;;;0.10;0.10;;;16.60;99.90;;;;;;5079295;28;20054;-75
2023/08/16 02:50:45;;;;;;;0.38;0.38;;;16.50;99.90;;;;;;5079456;28;20051;-76
2023/08/16 02:53:11;;;;;;;0.10;0.10;;;;;;;;;;5080957;28;20082;-76
2023/08/16 02:55:43;;;;;;;0.10;0.10;;;16.40;99.90;;;;;;5080933;28;20016;-75
2023/08/16 02:58:09;;;;;;;0.20;0.20;;;16.40;99.90;;;;;;5081002;28;20132;-75
2023/08/16 03:00:35;;;;;;;0.20;0.20;;;16.00;99.90;;;;;;5080642;28;20046;-76
2023/08/16 03:03:01;;;;;;;0.10;0.10;;;16.40;99.90;;;;;;5079285;28;20667;-76
2023/08/16 03:05:27;;;;;;;0.13;0.13;;;16.30;99.90;;;;;;5078812;28;20046;-76
2023/08/16 03:07:53;;;;;;;0.10;0.10;;;16.30;99.90;;;;;;5079106;28;20381;-74
2023/08/16 03:10:19;;;;;;;0.20;0.20;;;16.20;99.90;;;;;;5060839;28;20032;-75
2023/08/16 03:12:45;;;;;;;2.38;2.28;;;16.20;99.90;;;;;;5078673;28;20032;-81
2023/08/16 03:15:11;;;;;;;0.10;0.10;;;18.40;99.90;;;;;;5060641;28;20030;-75
2023/08/16 03:17:36;;;;;;;0.70;0.70;;;16.20;99.90;;;;;;5078749;28;20028;-75
2023/08/16 03:20:03;;;;;;;0.10;0.10;;;16.20;99.90;;;;;;5060969;28;20016;-75
2023/08/16 03:22:29;;;;;;;3.35;3.10;;;16.20;99.90;;;;;;5060829;28;20032;-75
2023/08/16 03:24:55;;;;;;;0.10;0.10;;;;;;;;;;5079331;28;20051;-75
2023/08/16 03:27:21;;;;;;;0.10;0.10;;;16.20;99.90;;;;;;5079425;28;20509;-76
2023/08/16 03:29:47;;;;;;;0.15;0.15;;;;;;;;;;5080107;28;20036;-75
2023/08/16 03:32:13;;;;;;;0.10;0.10;;;16.30;99.90;;;;;;5079679;28;20359;-75
2023/08/16 03:34:41;;;;;;;0.10;0.10;;;16.50;99.90;;;;;;5060093;28;20028;-75
2023/08/16 03:37:06;;;;;;;0.10;0.10;;;16.80;99.90;;;;;;5078849;28;20312;-75
2023/08/16 03:39:32;;;;;;;0.10;0.10;;;16.80;99.90;;;;;;5083612;28;20123;-76
2023/08/16 03:41:58;;;;;;;0.10;0.10;;;16.80;99.90;;;;;;5083320;28;20008;-75
2023/08/16 03:44:24;;;;;;;0.10;0.10;;;17.00;99.90;;;;;;5082372;28;20099;-75
2023/08/16 03:46:50;;;;;;;0.10;0.10;;;17.10;99.90;;;;;;5082994;28;20107;-75
2023/08/16 03:49:16;;;;;;;0.08;0.08;;;17.20;99.90;;;;;;5083045;28;20062;-75
2023/08/16 03:51:43;;;;;;;0.10;0.10;;;17.20;99.90;;;;;;5083723;28;20329;-76
2023/08/16 03:54:09;;;;;;;0.10;0.10;;;17.50;99.90;;;;;;5083492;28;20020;-77
2023/08/16 03:56:35;;;;;;;0.10;0.10;;;17.50;99.90;;;;;;5082875;28;20130;-75
2023/08/16 03:59:00;;;;;;;0.10;0.10;;;17.30;99.90;;;;;;5064561;28;20063;-76
2023/08/16 04:01:27;;;;;;;0.10;0.10;;;17.30;99.90;;;;;;5082762;28;20040;-76
2023/08/16 04:03:53;;;;;;;0.10;0.10;;;17.40;99.90;;;;;;5084757;28;20591;-76
2023/08/16 04:06:20;;;;;;;5.38;4.47;;;17.30;99.90;;;;;;5084351;28;20519;-75
2023/08/16 04:08:47;;;;;;;0.75;0.75;;;16.90;99.90;;;;;;5066183;28;20032;-75
2023/08/16 04:11:14;;;;;;;0.10;0.10;;;17.40;99.90;;;;;;5066171;28;20083;-75
2023/08/16 04:13:39;;;;;;;0.17;0.17;;;16.70;99.90;;;;;;5100955;28;20058;-75
2023/08/16 04:16:06;;;;;;;0.10;0.10;;;;;;;;;;5084064;28;20024;-76
2023/08/16 04:18:32;;;;;;;1.00;1.00;;;16.40;99.90;;;;;;5081920;28;20019;-75
2023/08/16 04:20:58;;;;;;;0.17;0.17;;;17.30;99.90;;;;;;5064339;28;20058;-77
2023/08/16 04:23:24;;;;;;;0.15;0.15;;;16.60;99.90;;;;;;5064831;28;20488;-75
2023/08/16 04:25:50;;;;;;;0.15;0.15;;;16.70;99.90;;;;;;5083894;28;20081;-78
2023/08/16 04:28:17;;;;;;;0.20;0.20;;;16.60;99.90;;;;;;5082718;28;20032;-76
2023/08/16 04:30:44;;;;;;;0.20;0.20;;;16.50;99.90;;;;;;5084290;28;20020;-77
2023/08/16 04:33:10;;;;;;;0.10;0.10;;;16.30;99.90;;;;;;5062510;28;20518;-76
2023/08/16 04:35:36;;;;;;;0.10;0.10;;;16.10;99.90;;;;;;5063902;28;20244;-76
2023/08/16 04:38:02;;;;;;;0.10;0.10;;;15.90;99.90;;;;;;5083139;28;20023;-76
2023/08/16 04:40:29;;;;;;;0.10;0.10;;;15.90;99.90;;;;;;5083220;28;20024;-75
2023/08/16 04:42:55;;;;;;;0.10;0.10;;;;;;;;;;5082296;28;20021;-75
2023/08/16 04:45:21;;;;;;;0.73;0.73;;;15.90;99.90;;;;;;5085206;28;20050;-80
2023/08/16 04:47:47;;;;;;;1.08;0.95;;;16.10;99.90;;;;;;5066584;28;20028;-76
2023/08/16 04:50:13;;;;;;;0.10;0.10;;;16.40;99.90;;;;;;5081904;28;20039;-75
2023/08/16 04:52:41;;;;;;;0.10;0.10;;;16.20;99.90;;;;;;5065347;28;20073;-75
2023/08/16 04:55:08;;;;;;;0.10;0.10;;;16.30;99.90;;;;;;5082860;28;20056;-75
2023/08/16 04:57:34;;;;;;;0.10;0.10;;;16.00;99.90;;;;;;5082606;28;20016;-75
2023/08/16 05:00:04;;;;;;;0.63;0.63;;;16.10;99.90;;;;;;5081995;28;20021;-76
2023/08/16 05:02:30;;;;;;;0.10;0.10;;;16.10;99.90;;;;;;5081660;28;20708;-75
2023/08/16 05:04:56;;;;;;;0.10;0.10;;;16.30;99.90;;;;;;5082732;28;20138;-75
2023/08/16 05:07:22;;;;;;;0.13;0.13;;;16.30;99.90;;;;;;5084210;28;20020;-75
2023/08/16 05:09:48;;;;;;;0.10;0.10;;;16.20;99.90;;;;;;5083567;28;20561;-76
2023/08/16 05:12:14;;;;;;;0.10;0.10;;;16.50;99.90;;;;;;5082381;28;20370;-76
2023/08/16 05:14:40;;;;;;;0.10;0.10;;;;;;;;;;5064528;28;20020;-75
2023/08/16 05:17:06;;;;;;;0.45;0.45;;;;;;;;;;5081835;28;20028;-77
2023/08/16 05:19:32;;;;;;;0.65;0.65;;;17.30;99.90;;;;;;5081204;28;20134;-75
2023/08/16 05:21:59;;;;;;;0.10;0.10;;;17.80;99.90;;;;;;5081705;28;20020;-75
2023/08/16 05:24:26;;;;;;;0.10;0.10;;;18.10;99.90;;;;;;5063870;28;20028;-75
2023/08/16 05:26:52;;;;;;;0.10;0.10;;;18.30;99.90;;;;;;5082609;28;20041;-76
2023/08/16 05:29:18;;;;;;;0.10;0.10;;;;;;;;;;5085341;28;20036;-77
2023/08/16 05:31:44;;;;;;;0.10;0.10;;;18.20;99.90;;;;;;5084715;28;20067;-77
2023/08/16 05:34:11;;;;;;;1.27;1.10;;;18.40;99.90;;;;;;5084162;28;20028;-78
2023/08/16 05:36:46;;;;;;;2.50;1.35;;;19.30;99.90;;;;;;5082518;28;20024;-74
2023/08/16 05:39:14;;;;;;;0.17;0.17;;;19.20;99.90;;;;;;5082341;28;20088;-78
2023/08/16 05:41:41;;;;;;;0.20;0.20;;;19.30;99.90;;;;;;5064393;28;20055;-77
2023/08/16 05:44:08;;;;;;;0.25;0.25;;;19.60;99.90;;;;;;5065667;28;20016;-77
2023/08/16 05:46:35;;;;;;;0.30;0.30;;;19.80;99.90;;;;;;5082692;28;20042;-76
2023/08/16 05:49:01;;;;;;;0.10;0.10;;;20.00;99.90;;;;;;5063615;28;20032;-83
2023/08/16 05:51:27;;;;;;;0.50;0.50;;;20.10;99.90;;;;;;5062641;28;20016;-76
2023/08/16 05:53:53;;;;;;;0.10;0.10;;;20.50;99.90;;;;;;5080768;28;20024;-75
2023/08/16 05:56:20;;;;;;;0.10;0.10;;;20.30;99.90;;;;;;5084686;28;20016;-76
2023/08/16 05:58:46;;;;;;;0.20;0.20;;;20.40;99.90;;;;;;5083858;28;20019;-77
2023/08/16 06:01:12;;;;;;;0.00;0.00;;;20.30;99.90;;;;;;5081970;28;20035;-78
2023/08/16 06:03:38;;;;;;;0.57;0.57;;;20.40;99.90;;;;;;5081122;28;20016;-76
2023/08/16 06:06:05;;;;;;;0.10;0.10;;;20.40;99.90;;;;;;5081546;28;20028;-77
2023/08/16 06:08:32;;;;;;;0.30;0.30;;;18.40;99.90;;;;;;5063429;28;20286;-77
2023/08/16 06:10:58;;;;;;;0.10;0.10;;;20.00;99.90;;;;;;5080720;28;20034;-76
2023/08/16 06:13:25;;;;;;;0.10;0.10;;;20.80;99.90;;;;;;5081561;28;20028;-78
2023/08/16 06:15:52;;;;;;;0.10;0.10;;;20.90;99.90;;;;;;5081279;28;20312;-76
2023/08/16 06:18:18;;;;;;;0.17;0.17;;;20.40;99.90;;;;;;5080397;28;20021;-76
2023/08/16 06:20:44;;;;;;;0.20;0.20;;;20.60;99.90;;;;;;5052560;28;20020;-76
2023/08/16 06:23:10;;;;;;;0.10;0.10;;;20.70;99.90;;;;;;5057840;28;20448;-76
2023/08/16 06:25:36;;;;;;;0.20;0.20;;;20.70;99.90;;;;;;5058233;28;20489;-87
2023/08/16 06:28:03;;;;;;;0.20;0.20;;;20.20;99.90;;;;;;5039939;28;20570;-78
2023/08/16 06:30:29;;;;;;;0.20;0.20;;;20.50;99.90;;;;;;5059099;28;20031;-76
2023/08/16 06:32:55;;;;;;;0.32;0.32;;;20.40;99.90;;;;;;5057907;28;20021;-77
2023/08/16 06:35:20;;;;;;;0.10;0.10;;;20.70;99.90;;;;;;5057961;28;20024;-76
2023/08/16 06:37:47;;;;;;;0.10;0.10;;;20.90;99.90;;;;;;5042504;28;20024;-75
2023/08/16 06:40:13;;;;;;;0.10;0.10;;;20.80;99.90;;;;;;5060092;28;20024;-76
2023/08/16 06:42:40;;;;;;;0.10;0.10;;;21.20;99.90;;;;;;5060630;28;20020;-74
2023/08/16 06:45:09;;;;;;;0.30;0.30;;;20.90;99.90;;;;;;5042278;28;20048;-82
2023/08/16 06:47:35;;;;;;;0.43;0.43;;;20.90;99.90;;;;;;5059390;28;20119;-86
2023/08/16 06:50:01;;;;;;;0.43;0.43;;;20.90;99.90;;;;;;5057702;28;20111;-83
2023/08/16 06:52:27;;;;;;;0.20;0.20;;;20.40;99.90;;;;;;5042450;28;20013;-78
2023/08/16 06:54:54;;;;;;;0.00;0.00;;;20.60;99.90;;;;;;5041981;28;20027;-78
2023/08/16 06:57:20;;;;;;;0.10;0.10;;;20.40;99.90;;;;;;5058886;28;20017;-76
2023/08/16 06:59:45;;;;;;;0.68;0.68;;;17.70;99.90;;;;;;5057855;28;20608;-78
2023/08/16 07:02:11;;;;;;;0.10;0.10;;;21.20;99.90;;;;;;5058791;28;20059;-75
2023/08/16 07:04:43;;;;;;;0.30;0.30;;;20.80;99.90;;;;;;5057778;28;20077;-79
2023/08/16 07:07:10;;;;;;;0.65;0.65;;;21.00;99.90;;;;;;5057608;28;20020;-78
2023/08/16 07:09:36;;;;;;;0.47;0.35;;;21.00;99.90;;;;;;5059209;28;20264;-77
2023/08/16 07:12:02;;;;;;;1.38;1.27;;;21.00;99.90;;;;;;5041331;28;20677;-77
2023/08/16 07:14:29;;;;;;;0.20;0.20;;;21.00;99.90;;;;;;5043562;28;20021;-79
2023/08/16 07:16:55;;;;;;;0.10;0.10;;;21.20;99.90;;;;;;5060924;28;20013;-78
2023/08/16 07:19:22;;;;;;;0.20;0.20;;;21.30;99.90;;;;;;5041663;28;20025;-79
2023/08/16 07:21:48;;;;;;;0.10;0.10;;;21.40;99.90;;;;;;5041770;28;20020;-81
2023/08/16 07:24:14;;;;;;;0.55;0.55;;;21.40;99.90;;;;;;5059907;28;20039;-78
2023/08/16 07:26:40;;;;;;;0.10;0.10;;;21.40;99.90;;;;;;5060465;28;20017;-77
2023/08/16 07:29:07;;;;;;;0.52;0.47;;;21.40;99.90;;;;;;5040566;28;20582;-76
2023/08/16 07:31:33;;;;;;;0.10;0.10;;;21.60;99.90;;;;;;5059151;28;20020;-79
2023/08/16 07:33:59;;;;;;;0.10;0.10;;;21.40;99.90;;;;;;5059835;28;20017;-77
2023/08/16 07:36:27;;;;;;;0.43;0.43;;;21.40;99.90;;;;;;5061526;28;20027;-77
2023/08/16 07:38:53;;;;;;;0.15;0.15;;;21.60;99.90;;;;;;5058521;28;20024;-77
2023/08/16 07:41:19;;;;;;;0.10;0.10;;;21.60;99.90;;;;;;5061313;28;20688;-76
2023/08/16 07:43:45;;;;;;;0.20;0.20;;;;;;;;;;5041829;28;20012;-75
2023/08/16 07:46:11;;;;;;;0.38;0.38;;;21.70;99.90;;;;;;5060539;28;20020;-75
2023/08/16 07:48:37;;;;;;;0.10;0.10;;;21.90;99.90;;;;;;5059152;28;20603;-78
2023/08/16 07:51:03;;;;;;;0.10;0.10;;;21.80;99.90;;;;;;5059174;28;20031;-76
2023/08/16 07:53:29;;;;;;;0.20;0.20;;;22.00;99.90;;;;;;5058270;28;20558;-76
2023/08/16 07:55:56;;;;;;;0.30;0.30;;;22.10;99.90;;;;;;5060074;28;20025;-76
2023/08/16 07:58:23;;;;;;;0.20;0.20;;;19.80;99.90;;;;;;5058950;28;20024;-76
2023/08/16 08:00:53;;;;;;;0.52;0.50;;;22.20;99.90;;;;;;5059314;28;20028;-76
2023/08/16 08:03:19;;;;;;;0.25;0.25;;;22.30;99.90;;;;;;5058490;28;20056;-76
2023/08/16 08:05:44;;;;;;;0.15;0.15;;;22.40;99.90;;;;;;5057101;28;20618;-76
2023/08/16 08:08:11;;;;;;;0.10;0.10;;;22.50;99.90;;;;;;5060702;28;20130;-78
2023/08/16 08:10:41;;;;;;;1.48;1.38;;;22.70;99.90;;;;;;5060349;28;20025;-76
2023/08/16 08:13:12;;;;;;;0.25;0.25;;;22.70;99.90;;;;;;5061165;28;20056;-77
2023/08/16 08:15:38;;;;;;;0.10;0.10;;;22.70;99.90;;;;;;5041700;28;20021;-77
2023/08/16 08:18:04;;;;;;;0.20;0.20;;;22.70;99.90;;;;;;5059977;28;20028;-77
2023/08/16 08:20:49;;;;;;;0.25;0.25;;;22.80;99.90;;;;;;5058378;28;20468;-78
2023/08/16 08:23:15;;;;;;;0.28;0.28;;;23.10;99.90;;;;;;5061432;28;20080;-77
2023/08/16 08:25:44;;;;;;;0.10;0.10;;;;;;;;;;5062696;28;20009;-76
2023/08/16 08:28:11;;;;;;;0.63;0.63;;;23.30;99.90;;;;;;5045690;28;20024;-77
2023/08/16 08:30:38;;;;;;;0.10;0.10;;;23.30;99.90;;;;;;5046899;28;20025;-76
2023/08/16 08:33:04;;;;;;;0.30;0.30;;;23.60;99.90;;;;;;5063258;28;20457;-77
2023/08/16 08:35:33;;;;;;;0.20;0.20;;;24.00;99.90;;;;;;5061146;28;20633;-77
2023/08/16 08:37:59;;;;;;;0.40;0.40;;;23.30;99.90;;;;;;5060783;28;20025;-77
2023/08/16 08:40:25;;;;;;;0.32;0.25;;;24.50;99.90;;;;;;5043003;28;20031;-77
2023/08/16 08:42:52;;;;;;;0.20;0.20;;;24.60;99.90;;;;;;5060209;28;20025;-77
2023/08/16 08:45:18;;;;;;;0.10;0.10;;;24.70;99.90;;;;;;5061631;28;20038;-77
2023/08/16 08:47:44;;;;;;;1.05;0.95;;;24.30;99.90;;;;;;5062758;28;20028;-77
2023/08/16 08:50:11;;;;;;;0.20;0.20;;;24.30;99.90;;;;;;5060851;28;20024;-76
2023/08/16 08:52:37;;;;;;;0.10;0.10;;;24.30;99.90;;;;;;5042918;28;20044;-77
2023/08/16 08:55:03;;;;;;;0.55;0.50;;;24.20;99.90;;;;;;5060333;28;20017;-76
2023/08/16 08:57:30;;;;;;;0.52;0.52;;;24.20;99.90;;;;;;5060284;28;20318;-76
2023/08/16 09:00:00;;;;;;;0.38;0.25;;;24.10;99.90;;;;;;5060482;28;20099;-75
2023/08/16 09:02:30;;;;;;;1.27;1.10;;;24.20;99.90;;;;;;5060770;28;20040;-76
2023/08/16 09:05:02;;;;;;;0.10;0.10;;;24.20;99.90;;;;;;5060881;28;20047;-76
2023/08/16 09:07:30;;;;;;;0.55;0.55;;;23.90;99.90;;;;;;5060561;28;20035;-77
2023/08/16 09:09:57;;;;;;;0.13;0.13;;;24.60;99.90;;;;;;5061960;28;20418;-77
2023/08/16 09:12:24;;;;;;;1.95;1.20;;;24.50;99.90;;;;;;5062783;28;20027;-77
2023/08/16 09:14:51;;;;;;;0.10;0.10;;;24.60;99.90;;;;;;5062742;28;20084;-78
2023/08/16 09:17:18;;;;;;;0.52;0.52;;;24.60;99.90;;;;;;5062669;28;20021;-77
2023/08/16 09:19:53;;;;;;;0.32;0.32;;;24.50;99.90;;;;;;5063301;28;20032;-77
2023/08/16 09:22:20;;;;;;;0.43;0.30;;;24.70;99.90;;;;;;5062083;28;20426;-77
2023/08/16 09:24:48;;;;;;;1.08;0.52;;;24.40;99.90;;;;;;5062499;28;20632;-77
2023/08/16 09:27:14;;;;;;;0.20;0.20;;;24.50;99.90;;;;;;5062039;28;20032;-77
2023/08/16 09:29:41;;;;;;;0.88;0.73;;;24.60;99.90;;;;;;5043428;28;20036;-77
2023/08/16 09:32:09;;;;;;;0.15;0.15;;;24.70;99.90;;;;;;5043623;28;20024;-77
2023/08/16 09:34:36;;;;;;;0.43;0.43;;;25.10;99.90;;;;;;5062126;28;20533;-76
2023/08/16 09:37:05;;;;;;;0.10;0.10;;;25.30;99.90;;;;;;5061963;28;20016;-79
2023/08/16 09:39:31;;;;;;;2.30;0.85;;;25.30;99.90;;;;;;5061851;28;20044;-76
2023/08/16 09:41:58;;;;;;;1.65;0.90;;;26.30;99.90;;;;;;5060878;28;20681;-77
2023/08/16 09:44:32;;;;;;;1.27;1.17;;;25.60;99.90;;;;;;5060766;28;20028;-77
2023/08/16 09:46:58;;;;;;;1.00;1.00;;;25.60;99.90;;;;;;5044118;28;20016;-77
2023/08/16 09:49:25;;;;;;;0.00;0.00;;;25.60;99.90;;;;;;5043425;28;20040;-76
2023/08/16 09:51:51;;;;;;;0.75;0.75;;;25.50;99.90;;;;;;5042701;28;20482;-76
2023/08/16 09:54:18;;;;;;;1.40;1.23;;;25.50;99.90;;;;;;5059895;28;20078;-76
2023/08/16 09:56:44;;;;;;;1.02;0.75;;;25.60;99.90;;;;;;5040543;28;20021;-76
2023/08/16 09:59:11;;;;;;;0.10;0.10;;;25.70;99.90;;;;;;5059581;28;20031;-76
2023/08/16 10:01:38;;;;;;;0.00;0.00;;;25.60;99.90;;;;;;5060845;28;20053;-76
2023/08/16 10:04:05;;;;;;;0.00;0.00;;;25.90;99.90;;;;;;5060119;28;20024;-76
2023/08/16 10:06:32;;;;;;;0.10;0.10;;;26.20;99.90;;;;;;5060528;28;20063;-77
2023/08/16 10:08:59;;;;;;;1.55;1.00;;;26.50;99.90;;;;;;5062109;28;20024;-78
2023/08/16 10:11:26;;;;;;;0.47;0.47;;;26.90;99.90;;;;;;5043756;28;20085;-77
2023/08/16 10:13:53;;;;;;;0.75;0.73;;;26.80;99.90;;;;;;5042631;28;20048;-77
2023/08/16 10:16:22;;;;;;;0.00;0.00;;;27.10;99.90;;;;;;5060232;28;20017;-77
2023/08/16 10:18:52;;;;;;;0.50;0.50;;;26.40;99.90;;;;;;5059965;28;20016;-77
2023/08/16 10:21:20;;;;;;;0.50;0.50;;;27.40;99.90;;;;;;5041889;28;20584;-76
2023/08/16 10:23:48;;;;;;;0.20;0.20;;;27.30;99.90;;;;;;5060190;28;20031;-76
2023/08/16 10:26:20;;;;;;;0.20;0.20;;;27.40;99.90;;;;;;5042708;28;20139;-78
2023/08/16 10:28:55;;;;;;;0.10;0.10;;;28.40;99.90;;;;;;5060657;28;20259;-80
2023/08/16 10:31:27;;;;;;;0.10;0.10;;;28.00;99.90;;;;;;5043101;28;20028;-77
2023/08/16 10:33:55;;;;;;;0.20;0.20;;;27.70;99.90;;;;;;5060921;28;20077;-78
2023/08/16 10:36:23;;;;;;;0.17;0.17;;;27.40;99.80;;;;;;5042283;28;20024;-75
2023/08/16 10:38:56;;;;;;;1.40;0.85;;;28.00;99.90;;;;;;5060525;28;20023;-79
2023/08/16 10:41:22;;;;;;;;;;;27.70;99.90;;;;;;5040519;28;20029;-76
2023/08/16 10:43:50;;;;;;;0.08;0.08;;;27.70;99.90;;;;;;5059926;28;19911;-77
2023/08/16 10:46:30;;;;;;;0.57;0.57;;;27.40;99.90;;;;;;5060169;28;20663;-75
2023/08/16 10:49:01;;;;;;;0.98;0.38;;;26.50;99.90;;;;;;5040427;28;20040;-75
2023/08/16 10:51:27;;;;;;;2.25;1.85;;;27.50;99.90;;;;;;5058105;28;20016;-77
2023/08/16 10:53:57;;;;;;;0.38;0.38;;;28.00;99.90;;;;;;5058696;28;20520;-84
2023/08/16 10:56:23;;;;;;;1.95;1.85;;;28.00;99.90;;;;;;5058694;28;20023;-76
2023/08/16 10:58:52;;;;;;;0.28;0.28;;;28.00;99.70;;;;;;5058748;28;20106;-75
2023/08/16 11:01:20;;;;;;;0.57;0.57;;;27.70;99.70;;;;;;5058596;28;20044;-76
2023/08/16 11:03:49;;;;;;;0.75;0.65;;;27.70;99.90;;;;;;5059843;28;20021;-76
2023/08/16 11:06:18;;;;;;;0.73;0.50;;;27.70;99.90;;;;;;5059400;28;20105;-76
2023/08/16 11:08:47;;;;;;;0.15;0.15;;;27.70;99.50;;;;;;5059547;28;20202;-75
2023/08/16 11:11:13;;;;;;;0.30;0.30;;;27.80;99.90;;;;;;5058748;28;20032;-77
2023/08/16 11:13:41;;;;;;;0.17;0.17;;;28.00;99.60;;;;;;5058715;28;20012;-84
2023/08/16 11:16:09;;;;;;;0.15;0.15;;;28.20;99.10;;;;;;5058752;28;20024;-75
2023/08/16 11:18:37;;;;;;;1.65;1.05;;;28.00;99.10;;;;;;5059010;28;20020;-73
2023/08/16 11:21:07;;;;;;;0.55;0.50;;;28.00;99.10;;;;;;5041216;28;20039;-81
2023/08/16 11:23:39;;;;;;;0.10;0.10;;;28.00;98.60;;;;;;5040524;28;20037;-75
2023/08/16 11:26:08;;;;;;;0.40;0.30;;;28.20;98.60;;;;;;5040973;28;20728;-75
2023/08/16 11:28:35;;;;;;;0.47;0.35;;;28.10;98.80;;;;;;5040550;28;20032;-78
2023/08/16 11:31:04;;;;;;;0.45;0.45;;;28.20;98.50;;;;;;5057990;28;20016;-79
2023/08/16 11:33:34;;;;;;;0.45;0.25;;;28.80;98.80;;;;;;5041090;28;20017;-80
2023/08/16 11:36:01;;;;;;;0.10;0.10;;;31.70;99.30;;;;;;5059201;28;20072;-80
2023/08/16 11:38:27;;;;;;;1.23;1.13;;;28.60;98.10;;;;;;5040382;28;20383;-76
2023/08/16 11:40:56;;;;;;;0.52;0.52;;;28.80;98.00;;;;;;5041081;28;20032;-76
2023/08/16 11:43:33;;;;;;;0.13;0.13;;;29.20;97.60;;;;;;5041177;28;20145;-76
2023/08/16 11:46:05;;;;;;;4.75;3.08;;;29.20;97.20;;;;;;5059860;28;20062;-76
2023/08/16 11:48:34;;;;;;;0.47;0.47;;;29.30;97.20;;;;;;5060221;28;20029;-76
2023/08/16 11:51:02;;;;;;;0.20;0.20;;;29.10;97.00;;;;;;5059468;28;20016;-77
2023/08/16 11:53:32;;;;;;;0.55;0.55;;;28.70;97.20;;;;;;5059832;28;20077;-89
2023/08/16 11:56:01;;;;;;;0.30;0.30;;;28.30;97.80;;;;;;5061440;28;20566;-76
2023/08/16 11:58:28;;;;;;;0.10;0.10;;;28.90;98.20;;;;;;5059122;28;20077;-79
2023/08/16 12:01:05;;;;;;;0.20;0.20;;;27.60;98.50;;;;;;5062459;28;20632;-78
2023/08/16 12:03:35;;;;;;;0.10;0.10;;;27.50;98.60;;;;;;5063044;28;20641;-77
2023/08/16 12:06:09;;;;;;;0.70;0.35;;;27.20;99.10;;;;;;5062413;28;20031;-76
2023/08/16 12:08:35;;;;;;;1.20;1.10;;;27.20;98.90;;;;;;5063484;28;20040;-75
2023/08/16 12:11:02;;;;;;;0.10;0.10;;;27.20;99.10;;;;;;5062983;28;20051;-76
2023/08/16 12:13:28;;;;;;;0.00;0.00;;;27.40;99.50;;;;;;5062323;28;20016;-76
2023/08/16 12:15:54;;;;;;;0.30;0.30;;;28.00;98.80;;;;;;5045644;28;20139;-76
2023/08/16 12:18:21;;;;;;;0.28;0.28;;;28.60;98.30;;;;;;5062826;28;20092;-76
2023/08/16 12:20:50;;;;;;;0.75;0.55;;;28.80;97.30;;;;;;5062605;28;20082;-76
2023/08/16 12:23:20;;;;;;;0.20;0.20;;;31.70;97.50;;;;;;5043669;28;20016;-78
2023/08/16 12:25:46;;;;;;;0.10;0.10;;;29.40;96.00;;;;;;5061089;28;20689;-76
2023/08/16 12:28:12;;;;;;;0.38;0.38;;;29.60;95.70;;;;;;5061912;28;20027;-79
2023/08/16 12:30:38;;;;;;;0.43;0.22;;;29.90;95.80;;;;;;5044473;28;20051;-76
2023/08/16 12:33:05;;;;;;;0.32;0.32;;;30.20;95.40;;;;;;5061561;28;20122;-75
2023/08/16 12:35:32;;;;;;;0.52;0.52;;;30.70;94.50;;;;;;5062078;28;20104;-76
2023/08/16 12:37:58;;;;;;;1.35;0.35;;;30.90;94.00;;;;;;5061600;28;20399;-76
2023/08/16 12:40:28;;;;;;;1.08;0.35;;;31.00;93.30;;;;;;5060809;28;20085;-75
2023/08/16 12:42:54;;;;;;;0.98;0.88;;;31.20;92.20;;;;;;5044511;28;20009;-75
2023/08/16 12:45:22;;;;;;;0.40;0.40;;;31.50;92.40;;;;;;5062606;28;20658;-75
2023/08/16 12:47:48;;;;;;;0.35;0.32;;;31.50;91.70;;;;;;5063363;28;20044;-78
2023/08/16 12:50:14;;;;;;;0.55;0.38;;;31.60;91.60;;;;;;5062546;28;20079;-77